• Join FlightAware (Why Join?)
  • Login
  • US Flag 
09:44AM EDT


 

Airport Tracker/Info


-or-


 

Live Flight TrackerFlight Track Log ✈ PDT4226 ✈ 12-Oct-2013 ✈ KPHL - KBGM

Flight Track Log - Related Links

Times and Time Zones

All times are in EDT time to prevent confusion due to time zone crossing. See the PDT4226 flight status page for this flight to view local times or setup timezone preferences in your user account.

Time Position Orientation Groundspeed Altitude Reporting Facility
EDT Latitude Longitude Course Direction KTS MPH feet Rate Location/Type
12:20PM 39.8833 -75.2000 351° North 117 135 700  Level Philadelphia TRACON
12:21PM 39.9000 -75.1833 37° Northeast 123 142 1,600 1,080 Climbing Philadelphia TRACON
12:22PM 39.9500 -75.2000 346° North 168 193 2,600 960 Climbing Philadelphia TRACON
12:23PM 40.0623 -75.2990 348° North  Level Estimated
12:23PM 40.0000 -75.2167 346° North 182 209 3,600  Level Philadelphia TRACON
12:24PM 40.1265 -75.3129 351° North  Level FlightAware Approximate
12:24PM 40.0500 -75.2167 360° North 217 250 4,000  Level Philadelphia TRACON
12:25PM 40.1907 -75.3268 351° North  Level FlightAware Approximate
12:25PM 40.1167 -75.2333 349° North 232 267 4,000  Level Philadelphia TRACON
12:26PM 40.2548 -75.3408 351° North  Level FlightAware Approximate
12:26PM 40.1833 -75.2667 339° North 237 273 4,000  Level Philadelphia TRACON
12:27PM 40.2333 -75.3000 333° Northwest 235 270 4,000  Level Philadelphia TRACON
12:29PM 40.3343 -75.3388 344° North  Level FlightAware Approximate
12:36PM 40.7806 -75.4500 North  Level FlightAware Approximate
12:37PM 40.8456 -75.4500 North  Level FlightAware Approximate
12:38PM 40.9107 -75.4500 North  Level FlightAware Approximate
12:39PM 40.9757 -75.4500 North  Level FlightAware Approximate
12:40PM 41.0408 -75.4506 357° North  Level FlightAware Approximate
12:41PM 41.1057 -75.4556 357° North  Level FlightAware Approximate
12:42PM 41.1707 -75.4605 357° North  Level FlightAware Approximate
12:43PM 41.2356 -75.4656 357° North  Level FlightAware Approximate
12:44PM 41.3007 -75.4667 North  Level FlightAware Approximate
12:45PM 41.3657 -75.4667 North  Level FlightAware Approximate
12:46PM 41.4308 -75.4667 North  Level FlightAware Approximate
12:47PM 41.4901 -75.4900 323° Northwest  Level FlightAware Approximate
12:48PM 41.5422 -75.5419 323° Northwest  Level FlightAware Approximate
12:49PM 41.5943 -75.5940 323° Northwest  Level FlightAware Approximate
12:50PM 41.6464 -75.6462 323° Northwest  Level FlightAware Approximate
12:51PM 41.6984 -75.6984 323° Northwest  Level FlightAware Approximate
12:52PM 41.7513 -75.7491 325° Northwest  Level FlightAware Approximate
12:53PM 41.8046 -75.7991 325° Northwest  Level FlightAware Approximate
12:54PM 41.8579 -75.8493 325° Northwest  Level FlightAware Approximate
12:55PM 41.9112 -75.8994 325° Northwest  Level FlightAware Approximate
12:56PM 41.9644 -75.9497 325° Northwest  Level FlightAware Approximate
12:57PM 42.0173 -76.0006 323° Northwest  Level FlightAware Approximate
12:58PM 42.0696 -76.0529 323° Northwest  Level FlightAware Approximate
12:59PM 42.1218 -76.1051 323° Northwest  Level FlightAware Approximate
01:00PM 42.1542 -76.0958 37° Northeast  Level FlightAware Approximate
01:01PM 42.1902 -76.0245 62° Northeast  Level FlightAware Approximate
01:02PM 42.2000 -75.9667 90° East  Level FlightAware Approximate